createdAt,value
2022-11-06T00:02:05.722Z,3.20
2022-11-06T00:06:49.596Z,3.10
2022-11-06T00:11:34.581Z,3.00
2022-11-06T00:16:19.633Z,2.90
2022-11-06T00:21:09.257Z,2.90
2022-11-06T00:25:56.757Z,2.90
2022-11-06T00:30:41.861Z,2.90
2022-11-06T00:35:25.350Z,3.00
2022-11-06T00:40:09.798Z,3.10
2022-11-06T00:44:53.256Z,3.20
2022-11-06T00:49:38.201Z,3.10
2022-11-06T00:54:22.108Z,3.00
2022-11-06T00:59:11.634Z,3.00
2022-11-06T01:03:57.172Z,2.90
2022-11-06T01:08:42.261Z,2.70
2022-11-06T01:13:25.725Z,2.70
2022-11-06T01:18:09.350Z,2.60
2022-11-06T01:22:53.009Z,2.70
2022-11-06T01:27:37.856Z,2.70
2022-11-06T01:32:21.330Z,2.60
2022-11-06T01:37:04.965Z,2.60
2022-11-06T01:41:50.865Z,2.60
2022-11-06T01:46:37.774Z,2.50
2022-11-06T01:51:23.427Z,2.50
2022-11-06T01:56:09.672Z,2.50
2022-11-06T02:00:53.374Z,2.40
2022-11-06T02:05:38.275Z,2.50
2022-11-06T02:10:22.061Z,2.60
2022-11-06T02:15:13.250Z,2.40
2022-11-06T02:20:04.864Z,2.50
2022-11-06T02:25:10.157Z,2.40
2022-11-06T02:30:01.563Z,2.20
2022-11-06T02:34:47.795Z,2.30
2022-11-06T02:39:34.108Z,2.20
2022-11-06T02:44:21.663Z,2.20
2022-11-06T02:49:14.196Z,2.00
2022-11-06T02:54:01.522Z,2.50
2022-11-06T02:58:50.814Z,2.30
2022-11-06T03:03:38.491Z,2.30
2022-11-06T03:08:29.118Z,2.30
2022-11-06T03:13:19.177Z,2.20
2022-11-06T03:18:12.653Z,2.40
2022-11-06T03:23:00.490Z,2.40
2022-11-06T03:27:53.801Z,2.30
2022-11-06T03:32:42.362Z,2.30
2022-11-06T03:37:31.910Z,2.50
2022-11-06T03:42:18.506Z,2.30
2022-11-06T03:47:08.298Z,2.10
2022-11-06T03:51:55.209Z,2.20
2022-11-06T03:56:43.160Z,2.30
2022-11-06T04:01:33.478Z,2.40
2022-11-06T04:06:22.721Z,2.40
2022-11-06T04:11:25.618Z,2.30
2022-11-06T04:16:11.026Z,2.10
2022-11-06T04:21:22.294Z,2.10
2022-11-06T04:26:33.368Z,2.00
2022-11-06T04:31:23.292Z,1.80
2022-11-06T04:36:17.122Z,1.60
2022-11-06T04:41:09.309Z,1.60
2022-11-06T04:45:56.694Z,1.70
2022-11-06T04:50:46.006Z,1.70
2022-11-06T04:55:31.558Z,1.70
2022-11-06T05:00:18.702Z,1.70
2022-11-06T05:05:02.222Z,1.50
2022-11-06T05:09:46.610Z,1.60
2022-11-06T05:14:30.150Z,1.60
2022-11-06T05:19:15.151Z,1.60
2022-11-06T05:23:58.688Z,1.40
2022-11-06T05:28:42.207Z,1.40
2022-11-06T05:33:25.845Z,1.30
2022-11-06T05:38:10.978Z,1.30
2022-11-06T05:42:54.691Z,1.20
2022-11-06T05:47:40.703Z,1.40
2022-11-06T05:52:24.178Z,1.40
2022-11-06T05:57:09.066Z,1.40
2022-11-06T06:01:52.673Z,1.40
2022-11-06T06:06:36.523Z,1.20
2022-11-06T06:11:19.981Z,1.10
2022-11-06T06:16:05.331Z,1.10
2022-11-06T06:20:48.762Z,1.00
2022-11-06T06:25:32.404Z,1.00
2022-11-06T06:30:16.118Z,1.00
2022-11-06T06:35:01.079Z,1.10
2022-11-06T06:39:44.587Z,1.10
2022-11-06T06:44:28.171Z,1.10
2022-11-06T06:49:11.750Z,1.10
2022-11-06T06:53:56.635Z,1.10
2022-11-06T06:58:40.034Z,1.40
2022-11-06T07:03:23.562Z,1.40
2022-11-06T07:08:07.451Z,1.50
2022-11-06T07:12:52.488Z,1.50
2022-11-06T07:17:36.261Z,1.50
2022-11-06T07:22:25.396Z,1.50
2022-11-06T07:27:14.510Z,1.60
2022-11-06T07:31:59.425Z,1.70
2022-11-06T07:36:42.956Z,1.80
2022-11-06T07:41:26.427Z,1.90
2022-11-06T07:46:13.173Z,2.70
2022-11-06T07:50:58.750Z,3.40
2022-11-06T07:55:49.769Z,4.10
2022-11-06T08:00:33.660Z,4.90
2022-11-06T08:05:17.384Z,5.80
2022-11-06T08:10:02.690Z,6.70
2022-11-06T08:14:46.331Z,7.60
2022-11-06T08:19:29.860Z,8.20
2022-11-06T08:24:17.631Z,8.30
2022-11-06T08:29:05.905Z,8.90
2022-11-06T08:33:49.342Z,9.60
2022-11-06T08:38:32.969Z,9.80
2022-11-06T08:43:16.847Z,9.40
2022-11-06T08:48:05.041Z,8.00
2022-11-06T08:52:48.521Z,9.00
2022-11-06T08:57:32.027Z,9.60
2022-11-06T09:02:16.656Z,10.50
2022-11-06T09:07:01.697Z,10.70
2022-11-06T09:11:45.284Z,10.90
2022-11-06T09:16:28.910Z,11.20
2022-11-06T09:21:12.410Z,11.80
2022-11-06T09:25:58.696Z,12.50
2022-11-06T09:30:42.293Z,12.60
2022-11-06T09:35:27.608Z,12.50
2022-11-06T09:40:20.359Z,12.90
2022-11-06T09:45:10.917Z,13.80
2022-11-06T09:49:56.742Z,14.70
2022-11-06T09:54:44.802Z,14.80
2022-11-06T09:59:29.183Z,14.90
2022-11-06T10:04:24.023Z,14.80
2022-11-06T10:09:08.749Z,15.30
2022-11-06T10:14:01.924Z,15.60
2022-11-06T10:18:57.563Z,15.80
2022-11-06T10:23:49.356Z,16.30
2022-11-06T10:29:03.749Z,16.20
2022-11-06T10:33:56.063Z,16.10
2022-11-06T10:38:43.468Z,15.80
2022-11-06T10:43:33.582Z,15.60
2022-11-06T10:48:30.102Z,16.00
2022-11-06T10:53:25.993Z,16.20
2022-11-06T10:58:12.235Z,16.70
2022-11-06T11:03:01.080Z,16.20
2022-11-06T11:07:46.558Z,16.10
2022-11-06T11:12:33.123Z,15.50
2022-11-06T11:17:21.842Z,14.90
2022-11-06T11:22:19.965Z,15.00
2022-11-06T11:27:06.083Z,15.50
2022-11-06T11:31:53.363Z,16.70
2022-11-06T11:36:52.094Z,17.60
2022-11-06T11:41:38.533Z,17.80
2022-11-06T11:46:22.555Z,18.50
2022-11-06T11:51:15.444Z,19.30
2022-11-06T11:56:00.893Z,20.10
2022-11-06T12:00:53.269Z,20.90
2022-11-06T12:05:40.302Z,20.80
2022-11-06T12:10:33.806Z,21.00
2022-11-06T12:15:22.230Z,21.20
2022-11-06T12:20:15.695Z,21.60
2022-11-06T12:25:05.198Z,21.50
2022-11-06T12:29:53.020Z,20.40
2022-11-06T12:34:42.413Z,20.50
2022-11-06T12:39:34.006Z,21.50
2022-11-06T12:44:18.817Z,20.40
2022-11-06T12:49:47.437Z,19.40
2022-11-06T12:54:43.428Z,19.50
2022-11-06T12:59:39.073Z,20.40
2022-11-06T13:04:43.125Z,19.50
2022-11-06T13:09:31.224Z,18.90
2022-11-06T13:14:24.132Z,19.70
2022-11-06T13:19:14.456Z,19.60
2022-11-06T13:24:03.041Z,19.40
2022-11-06T13:28:51.333Z,17.80
2022-11-06T13:33:41.447Z,16.50
2022-11-06T13:38:29.203Z,16.50
2022-11-06T13:43:21.161Z,14.80
2022-11-06T13:48:24.461Z,13.60
2022-11-06T13:53:25.787Z,13.00
2022-11-06T13:58:29.448Z,12.70
2022-11-06T14:03:54.350Z,12.70
2022-11-06T14:08:53.419Z,12.30
2022-11-06T14:13:38.903Z,12.40
2022-11-06T14:18:25.098Z,12.10
2022-11-06T14:24:01.059Z,12.00
2022-11-06T14:28:46.894Z,12.10
2022-11-06T14:34:06.434Z,12.00
2022-11-06T14:38:52.023Z,11.80
2022-11-06T14:43:36.194Z,11.40
2022-11-06T14:48:30.461Z,11.00
2022-11-06T14:53:23.414Z,10.70
2022-11-06T14:58:19.077Z,10.50
2022-11-06T15:03:06.951Z,10.40
2022-11-06T15:08:06.831Z,10.30
2022-11-06T15:13:07.467Z,10.80
2022-11-06T15:17:52.435Z,11.20
2022-11-06T15:22:42.360Z,11.60
2022-11-06T15:27:33.672Z,12.00
2022-11-06T15:32:21.050Z,12.00
2022-11-06T15:37:12.379Z,11.80
2022-11-06T15:41:56.627Z,11.50
2022-11-06T15:46:55.597Z,11.30
2022-11-06T15:51:43.736Z,11.00
2022-11-06T15:56:33.298Z,10.90
2022-11-06T16:01:33.821Z,10.30
2022-11-06T16:06:20.607Z,9.50
2022-11-06T16:11:10.689Z,8.80
2022-11-06T16:15:59.606Z,8.30
2022-11-06T16:20:44.889Z,8.00
2022-11-06T16:25:30.728Z,7.80
2022-11-06T16:30:25.479Z,7.50
2022-11-06T16:35:35.578Z,7.40
2022-11-06T16:40:51.662Z,7.30
2022-11-06T16:45:52.093Z,7.20
2022-11-06T16:50:51.097Z,7.30
2022-11-06T16:55:35.324Z,7.20
2022-11-06T17:00:29.357Z,7.20
2022-11-06T17:05:21.860Z,7.30
2022-11-06T17:10:40.243Z,7.20
2022-11-06T17:15:26.333Z,7.30
2022-11-06T17:20:17.686Z,7.30
2022-11-06T17:25:02.614Z,7.40
2022-11-06T17:29:47.801Z,7.50
2022-11-06T17:34:34.834Z,7.40
2022-11-06T17:39:20.083Z,7.60
2022-11-06T17:44:06.707Z,7.60
2022-11-06T17:48:51.617Z,7.70
2022-11-06T17:53:37.993Z,7.80
2022-11-06T17:58:22.749Z,7.80
2022-11-06T18:03:07.662Z,7.80
2022-11-06T18:07:54.711Z,7.90
2022-11-06T18:12:41.438Z,7.90
2022-11-06T18:17:26.776Z,7.90
2022-11-06T18:22:13.032Z,7.80
2022-11-06T18:26:58.657Z,7.70
2022-11-06T18:31:44.795Z,7.70
2022-11-06T18:36:31.869Z,7.70
2022-11-06T18:41:19.088Z,7.70
2022-11-06T18:46:08.396Z,7.70
2022-11-06T18:50:58.530Z,7.70
2022-11-06T18:55:48.292Z,7.60
2022-11-06T19:00:34.276Z,7.50
2022-11-06T19:05:21.005Z,7.40
2022-11-06T19:10:08.945Z,7.40
2022-11-06T19:14:54.285Z,7.40
2022-11-06T19:19:40.500Z,7.60
2022-11-06T19:24:25.466Z,7.60
2022-11-06T19:29:15.604Z,7.60
2022-11-06T19:34:01.706Z,7.70
2022-11-06T19:38:52.411Z,7.60
2022-11-06T19:43:44.277Z,7.60
2022-11-06T19:48:33.800Z,7.50
2022-11-06T19:53:22.584Z,7.40
2022-11-06T19:58:07.475Z,7.50
2022-11-06T20:02:54.583Z,7.50
2022-11-06T20:07:42.959Z,7.50
2022-11-06T20:12:28.724Z,7.60
2022-11-06T20:17:18.946Z,7.60
2022-11-06T20:22:04.631Z,7.60
2022-11-06T20:26:52.094Z,7.60
2022-11-06T20:31:38.331Z,7.50
2022-11-06T20:36:58.389Z,7.60
2022-11-06T20:41:47.173Z,7.60
2022-11-06T20:46:33.770Z,7.60
2022-11-06T20:51:22.358Z,7.60
2022-11-06T20:56:11.288Z,7.60
2022-11-06T21:01:03.362Z,7.60
2022-11-06T21:05:49.279Z,7.70
2022-11-06T21:10:41.912Z,7.70
2022-11-06T21:15:27.150Z,7.70
2022-11-06T21:20:12.931Z,7.60
2022-11-06T21:24:58.747Z,7.60
2022-11-06T21:29:43.231Z,7.60
2022-11-06T21:34:27.708Z,7.60
2022-11-06T21:39:15.512Z,7.50
2022-11-06T21:44:00.739Z,7.50
2022-11-06T21:48:47.266Z,7.50
2022-11-06T21:53:49.577Z,7.50
2022-11-06T21:58:33.206Z,7.50
2022-11-06T22:03:18.511Z,7.40
2022-11-06T22:08:02.071Z,7.50
2022-11-06T22:12:45.626Z,7.50
2022-11-06T22:17:30.296Z,7.50
2022-11-06T22:22:27.474Z,7.50
2022-11-06T22:27:11.566Z,7.60
2022-11-06T22:31:55.059Z,7.70
2022-11-06T22:36:39.118Z,7.70
2022-11-06T22:41:25.561Z,7.80
2022-11-06T22:46:10.954Z,7.80
2022-11-06T22:50:54.564Z,7.90
2022-11-06T22:55:37.955Z,7.90
2022-11-06T23:00:25.509Z,7.90
2022-11-06T23:05:09.551Z,8.30
2022-11-06T23:09:53.160Z,8.30
2022-11-06T23:14:36.713Z,8.30
2022-11-06T23:19:21.950Z,8.50
2022-11-06T23:24:06.849Z,8.80
2022-11-06T23:28:50.504Z,8.70
2022-11-06T23:33:34.127Z,8.70
2022-11-06T23:38:19.211Z,8.60
2022-11-06T23:43:02.719Z,8.70
2022-11-06T23:47:46.317Z,9.00
2022-11-06T23:52:30.063Z,9.10
2022-11-06T23:57:15.417Z,9.00
